Phoenix Sky Harbor International Airport
KPHX : now visible

Airfield :











YOU CAN JOIN US ON...

 
LOGIN :

Register | Disclaimer

   EN    FR    IT 

 









Legend :    VFR   Marginal VFR   IFR   Intensive IFR   Very Intensive IFR
Visi :
Ceiling :
>= 8 km
>= 3000ft
5 to 8 km
1000 to 3000 ft
1500m to 5 km
500 to 1000 ft
800 to 1500m
200 to 500 ft
< 800m
< 200 ft
Symbols :   Thunderstorms  Fog  Heavy snow  Heavy precipitations  Wind > 20 kt






- Airport Elevation : 1135 ft
- IATA code : PHX


KPHX - Phoenix Sky Harbor International

CURRENT METAR :
  • 100651Z 24003KT 10SM CLR 16/02 A2999 RMK AO2 SLP145 T01610022 402330122

EXPIRED METARs :
  • 100551Z 24004KT 10SM CLR 17/02 A2999 RMK AO2 SLP146 T01670022 10222 20167 51010
  • 100451Z 24006KT 10SM CLR 18/02 A2998 RMK AO2 SLP143 T01780017

TAF KPHX
Valid from the 10 at 06:00 until the 11 at 12:00 UTC


100540Z 1006/1112 25006KT P6SM SKC
FM101200 11005KT P6SM SCT200
FM101700 18006KT P6SM FEW090 SCT200
FM102000 25007KT P6SM FEW080 SCT150
FM110000 28012KT P6SM FEW080 BKN150
FM110600 27008KT P6SM SCT080 BKN100
FM111000 25006KT P6SM VCSH SCT060 BKN080



MET'MAP, your aeronautical weather chart ! - Copyright ORBIFLY December 2007 - Disclaimer

ORBIFLY MET'MAP TEAM :

Programming & Development : Alexandra Zaïnal
Concept & original design : Baudouin d'Aumeries
Assistance for programming : Marc-Olivier Méhu
Technical & hardware support : Manuel Goepfert

Contact : metmap@orbifly.com




SOURCES & CREDITS :

   NOAA       Earth
Advisory